الصفحة الرئيسية
METAR-TAF:

METAR-TAF

مطار :

مطار كوالالمبور الدولي

كوالالمبور, ماليزيا

دائرة عرض: 02-44N, خط طول: 101-42E, ارتفاع: 21 متر

مراقبة الطقس الحالي

تاريخ ووقت الإصدار 38 دقيقة قبل الساعة 17:30UTC
ريح 4 عقدة من الجنوب الشرقي, الاتجاه يتراوح بين الشرق و الجنوب
درجة الحرارة 27°درجة مئوية
الرطوبة 89%
ضغط 1009 hPa
الرؤية 10 كم أو أكثر
غيوم قليلة على ارتفاع 1700 قدم, مزنة ركامية.

METAR: WMKK 021730Z 13004KT 080V180 9999 FEW017CB 27/25 Q1009 NOSIG

زمن: 02:08 (18:08 UTC)

توقعات

تاريخ ووقت الإصدار 1ساعة و 8 دقيقة قبل الساعة 17:00UTC
التوقعات صالحة من02 الساعة 18 UTC إلى 04 الساعة 00 UTC
ريح 5 عقدة من الجنوب/الجنوب الشرقي
الرؤية 10 كم أو أكثر
غيوم قليلة على ارتفاع 1700 قدم, مزنة ركامية.
مؤقت
من 02 الساعة 18 UTC إلى 02 الساعة 22 UTC
ريح 8 عقدة من الجنوب الشرقي
الرؤية: 4000 متر
غيوم قليلة على ارتفاع 1700 قدم, مزنة ركامية.
غيوم متفرقة على ارتفاع 1800 قدم
عاصفة رعدية, مطر
أصبح
من 03 الساعة 00 UTC إلى 03 الساعة 02 UTC
غيوم قليلة على ارتفاع 1800 قدم

TAF: WMKK 021700Z 0218/0400 15005KT 9999 FEW017CB TEMPO 0218/0222 14008KT 4000 TSRA FEW017CB SCT018 BECMG 0300/0302 FEW018

أرصاد الطقس والتوقعات من أكثر من 4000 مطار (تقارير الطقس للمطار METAR والتنبؤ بالطقس بالمطارTAF).

المحطات المتاحة هي النقط الصفراء والحمراء على الخريطة.

حرك المؤشر فوق النقطة لمعرفة اسم المحطة.

ثم انقر لمعرفة أرصاد وتوقعات الطقس.

لتغيير الخارطة: اضغط على الأزرار الخضراء مع رمز الصليب الأسود للتكبير. على الزر الأخضر مع شرطة للتصغير، أو على الأسهم الخضراء للخرائط المجاورة.


METAR-TAF: